Aérodrome :
LOGIN :

S'inscrire | Disclaimer

   EN    FR    IT 

 










Légende :    VFR   VFR Marginal   IFR   IFR Intensif   IFR Très Intensif
Visi : 
Plafond : 
>= 8 km
>= 3000ft
5 à 8 km
1000 à 3000 ft
1500m à 5 km
500 à 1000 ft
800 à 1500m
200 à 500 ft
< 800m
< 200 ft
Symboles :   Orages  Brouillard  Fortes neiges  Fortes précipitations  Vent > 20 kt
SIGMETs :   Divers  Orages  Givrage  Turbulence  Onde Orograph.  Cendres Volcan.






- Altitude de l'aérodrome : -15 ft
- Code IATA : RTM


EHRD - Rotterdam Zestienhoven

DERNIER METAR :
  • 312025Z AUTO 04010KT 360V070 9999 NSC 17/10 Q1022 NOSIG

METARs EXPIRÉS :
  • 311955Z AUTO 04010KT 9999 NSC 18/10 Q1022 NOSIG
  • 311925Z AUTO 08007KT 040V110 9999 NSC 19/06 Q1022 NOSIG
  • 311855Z AUTO 09009KT 060V140 9999 NSC 20/05 Q1021 NOSIG
  • 311825Z AUTO 07012KT 9999 NSC 20/07 Q1021 NOSIG
  • 311755Z AUTO 05010KT 360V080 9999 NSC 21/06 Q1021 NOSIG

TAF TAF EHRD
Valide du 31 à 18h jusqu'au 02 à 00h UTC


311714Z 3118/0124 05013KT CAVOK
BECMG 3119/3122 04008KT
BECMG 0103/0106 08010KT
BECMG 0110/0113 05012KT
BECMG 0116/0119 36010KT
BECMG 0119/0122 03006KT



MET'MAP, la Météo Aéronautique d'un coup d'oeil ! - Copyright ORBIFLY Décembre 2007 - Disclaimer

ORBIFLY MET'MAP TEAM :

Programmation & Développement : Alexandra Zaïnal
Sur une idée originale de : Baudouin d'Aumeries
Assistance à la programmation : Marc-Olivier Méhu
Soutien technique & logistique : Manuel Goepfert

Contact : metmap@orbifly.com




SOURCES & CREDITS :

   NOAA